sensor_id;sensor_type;location;lat;lon;timestamp;temperature;humidity
7196;DHT22;3639;51.308;5.624;2023-07-16T00:01:45;18.20;99.90
7196;DHT22;3639;51.308;5.624;2023-07-16T00:04:11;18.10;99.90
7196;DHT22;3639;51.308;5.624;2023-07-16T00:06:37;18.10;99.90
7196;DHT22;3639;51.308;5.624;2023-07-16T00:09:02;18.10;99.90
7196;DHT22;3639;51.308;5.624;2023-07-16T00:11:28;18.10;99.90
7196;DHT22;3639;51.308;5.624;2023-07-16T00:13:54;18.10;99.90
7196;DHT22;3639;51.308;5.624;2023-07-16T00:16:19;18.00;99.90
7196;DHT22;3639;51.308;5.624;2023-07-16T00:18:45;18.00;99.90
7196;DHT22;3639;51.308;5.624;2023-07-16T00:21:11;17.90;99.90
7196;DHT22;3639;51.308;5.624;2023-07-16T00:23:36;17.90;99.90
7196;DHT22;3639;51.308;5.624;2023-07-16T00:26:02;17.90;99.90
7196;DHT22;3639;51.308;5.624;2023-07-16T00:28:29;17.90;99.90
7196;DHT22;3639;51.308;5.624;2023-07-16T00:30:54;17.80;99.90
7196;DHT22;3639;51.308;5.624;2023-07-16T00:33:20;17.80;99.90
7196;DHT22;3639;51.308;5.624;2023-07-16T00:35:49;17.80;99.90
7196;DHT22;3639;51.308;5.624;2023-07-16T00:38:18;17.70;99.90
7196;DHT22;3639;51.308;5.624;2023-07-16T00:40:44;17.70;99.90
7196;DHT22;3639;51.308;5.624;2023-07-16T00:43:10;17.60;99.90
7196;DHT22;3639;51.308;5.624;2023-07-16T00:45:36;17.60;99.90
7196;DHT22;3639;51.308;5.624;2023-07-16T00:48:02;17.60;99.90
7196;DHT22;3639;51.308;5.624;2023-07-16T00:50:29;17.50;99.90
7196;DHT22;3639;51.308;5.624;2023-07-16T00:53:02;17.50;99.90
7196;DHT22;3639;51.308;5.624;2023-07-16T00:55:32;17.50;99.90
7196;DHT22;3639;51.308;5.624;2023-07-16T00:58:05;17.50;99.90
7196;DHT22;3639;51.308;5.624;2023-07-16T01:00:41;17.50;99.90
7196;DHT22;3639;51.308;5.624;2023-07-16T01:03:10;17.40;99.90
7196;DHT22;3639;51.308;5.624;2023-07-16T01:05:45;17.30;99.90
7196;DHT22;3639;51.308;5.624;2023-07-16T01:08:14;17.30;99.90
7196;DHT22;3639;51.308;5.624;2023-07-16T01:10:44;17.30;99.90
7196;DHT22;3639;51.308;5.624;2023-07-16T01:13:10;17.20;99.90
7196;DHT22;3639;51.308;5.624;2023-07-16T01:15:36;17.20;99.90
7196;DHT22;3639;51.308;5.624;2023-07-16T01:18:03;17.20;99.90
7196;DHT22;3639;51.308;5.624;2023-07-16T01:20:29;17.20;99.90
7196;DHT22;3639;51.308;5.624;2023-07-16T01:31:24;17.00;99.90
7196;DHT22;3639;51.308;5.624;2023-07-16T01:33:52;16.90;99.90
7196;DHT22;3639;51.308;5.624;2023-07-16T01:36:19;16.90;99.90
7196;DHT22;3639;51.308;5.624;2023-07-16T01:38:46;16.90;99.90
7196;DHT22;3639;51.308;5.624;2023-07-16T01:41:12;16.90;99.90
7196;DHT22;3639;51.308;5.624;2023-07-16T01:43:38;16.90;99.90
7196;DHT22;3639;51.308;5.624;2023-07-16T01:46:03;16.90;99.90
7196;DHT22;3639;51.308;5.624;2023-07-16T01:48:32;16.90;99.90
7196;DHT22;3639;51.308;5.624;2023-07-16T01:50:58;16.80;99.90
7196;DHT22;3639;51.308;5.624;2023-07-16T01:53:23;16.70;99.90
7196;DHT22;3639;51.308;5.624;2023-07-16T01:55:49;16.70;99.90
7196;DHT22;3639;51.308;5.624;2023-07-16T01:58:15;16.70;99.90
7196;DHT22;3639;51.308;5.624;2023-07-16T02:00:41;16.70;99.90
7196;DHT22;3639;51.308;5.624;2023-07-16T02:03:07;16.70;99.90
7196;DHT22;3639;51.308;5.624;2023-07-16T02:05:32;16.70;99.90
7196;DHT22;3639;51.308;5.624;2023-07-16T02:07:58;16.80;99.90
7196;DHT22;3639;51.308;5.624;2023-07-16T02:10:24;16.80;99.90
7196;DHT22;3639;51.308;5.624;2023-07-16T02:12:49;16.80;99.90
7196;DHT22;3639;51.308;5.624;2023-07-16T02:15:15;16.80;99.90
7196;DHT22;3639;51.308;5.624;2023-07-16T02:17:41;16.80;99.90
7196;DHT22;3639;51.308;5.624;2023-07-16T02:20:07;16.70;99.90
7196;DHT22;3639;51.308;5.624;2023-07-16T02:22:34;16.70;99.90
7196;DHT22;3639;51.308;5.624;2023-07-16T02:25:00;16.60;99.90
7196;DHT22;3639;51.308;5.624;2023-07-16T02:27:26;16.60;99.90
7196;DHT22;3639;51.308;5.624;2023-07-16T02:29:52;16.60;99.90
7196;DHT22;3639;51.308;5.624;2023-07-16T02:32:17;16.50;99.90
7196;DHT22;3639;51.308;5.624;2023-07-16T02:34:43;16.40;99.90
7196;DHT22;3639;51.308;5.624;2023-07-16T02:37:09;16.40;99.90
7196;DHT22;3639;51.308;5.624;2023-07-16T02:39:34;16.30;99.90
7196;DHT22;3639;51.308;5.624;2023-07-16T02:42:00;16.30;99.90
7196;DHT22;3639;51.308;5.624;2023-07-16T02:44:26;16.20;99.90
7196;DHT22;3639;51.308;5.624;2023-07-16T02:46:53;16.20;99.90
7196;DHT22;3639;51.308;5.624;2023-07-16T02:49:18;16.20;99.90
7196;DHT22;3639;51.308;5.624;2023-07-16T02:51:44;16.10;99.90
7196;DHT22;3639;51.308;5.624;2023-07-16T02:54:10;16.10;99.90
7196;DHT22;3639;51.308;5.624;2023-07-16T02:56:35;16.10;99.90
7196;DHT22;3639;51.308;5.624;2023-07-16T02:59:01;16.00;99.90
7196;DHT22;3639;51.308;5.624;2023-07-16T03:01:26;16.00;99.90
7196;DHT22;3639;51.308;5.624;2023-07-16T03:03:52;16.10;99.90
7196;DHT22;3639;51.308;5.624;2023-07-16T03:06:17;16.00;99.90
7196;DHT22;3639;51.308;5.624;2023-07-16T03:08:43;15.90;99.90
7196;DHT22;3639;51.308;5.624;2023-07-16T03:11:11;15.80;99.90
7196;DHT22;3639;51.308;5.624;2023-07-16T03:13:36;15.90;99.90
7196;DHT22;3639;51.308;5.624;2023-07-16T03:16:02;15.80;99.90
7196;DHT22;3639;51.308;5.624;2023-07-16T03:18:29;15.80;99.90
7196;DHT22;3639;51.308;5.624;2023-07-16T03:20:56;15.80;99.90
7196;DHT22;3639;51.308;5.624;2023-07-16T03:23:23;15.80;99.90
7196;DHT22;3639;51.308;5.624;2023-07-16T03:25:49;15.70;99.90
7196;DHT22;3639;51.308;5.624;2023-07-16T03:28:14;15.70;99.90
7196;DHT22;3639;51.308;5.624;2023-07-16T03:30:49;15.70;99.90
7196;DHT22;3639;51.308;5.624;2023-07-16T03:33:15;15.60;99.90
7196;DHT22;3639;51.308;5.624;2023-07-16T03:35:44;15.60;99.90
7196;DHT22;3639;51.308;5.624;2023-07-16T03:38:30;15.60;99.90
7196;DHT22;3639;51.308;5.624;2023-07-16T03:40:56;15.60;99.90
7196;DHT22;3639;51.308;5.624;2023-07-16T03:43:21;15.60;99.90
7196;DHT22;3639;51.308;5.624;2023-07-16T03:45:47;15.60;99.90
7196;DHT22;3639;51.308;5.624;2023-07-16T03:48:12;15.60;99.90
7196;DHT22;3639;51.308;5.624;2023-07-16T03:50:38;15.50;99.90
7196;DHT22;3639;51.308;5.624;2023-07-16T03:53:04;15.50;99.90
7196;DHT22;3639;51.308;5.624;2023-07-16T03:55:30;15.50;99.90
7196;DHT22;3639;51.308;5.624;2023-07-16T03:57:56;15.40;99.90
7196;DHT22;3639;51.308;5.624;2023-07-16T04:00:21;15.40;99.90
7196;DHT22;3639;51.308;5.624;2023-07-16T04:02:47;15.40;99.90
7196;DHT22;3639;51.308;5.624;2023-07-16T04:05:13;15.40;99.90
7196;DHT22;3639;51.308;5.624;2023-07-16T04:07:38;15.40;99.90
7196;DHT22;3639;51.308;5.624;2023-07-16T04:10:04;15.40;99.90
7196;DHT22;3639;51.308;5.624;2023-07-16T04:12:30;15.30;99.90
7196;DHT22;3639;51.308;5.624;2023-07-16T04:14:59;15.30;99.90
7196;DHT22;3639;51.308;5.624;2023-07-16T04:17:25;15.40;99.90
7196;DHT22;3639;51.308;5.624;2023-07-16T04:19:51;15.30;99.90
7196;DHT22;3639;51.308;5.624;2023-07-16T04:22:17;15.30;99.90
7196;DHT22;3639;51.308;5.624;2023-07-16T04:24:42;15.20;99.90
7196;DHT22;3639;51.308;5.624;2023-07-16T04:27:08;15.20;99.90
7196;DHT22;3639;51.308;5.624;2023-07-16T04:29:34;15.30;99.90
7196;DHT22;3639;51.308;5.624;2023-07-16T04:31:59;15.20;99.90
7196;DHT22;3639;51.308;5.624;2023-07-16T04:34:25;15.20;99.90
7196;DHT22;3639;51.308;5.624;2023-07-16T04:36:50;15.20;99.90
7196;DHT22;3639;51.308;5.624;2023-07-16T04:39:16;15.20;99.90
7196;DHT22;3639;51.308;5.624;2023-07-16T04:41:42;15.20;99.90
7196;DHT22;3639;51.308;5.624;2023-07-16T04:44:08;15.30;99.90
7196;DHT22;3639;51.308;5.624;2023-07-16T04:46:33;15.30;99.90
7196;DHT22;3639;51.308;5.624;2023-07-16T04:48:59;15.30;99.90
7196;DHT22;3639;51.308;5.624;2023-07-16T04:51:25;15.30;99.90
7196;DHT22;3639;51.308;5.624;2023-07-16T04:53:51;15.30;99.90
7196;DHT22;3639;51.308;5.624;2023-07-16T04:56:16;15.40;99.90
7196;DHT22;3639;51.308;5.624;2023-07-16T04:58:42;15.40;99.90
7196;DHT22;3639;51.308;5.624;2023-07-16T05:01:09;15.50;99.90
7196;DHT22;3639;51.308;5.624;2023-07-16T05:03:35;15.50;99.90
7196;DHT22;3639;51.308;5.624;2023-07-16T05:06:01;15.60;99.90
7196;DHT22;3639;51.308;5.624;2023-07-16T05:08:27;15.70;99.90
7196;DHT22;3639;51.308;5.624;2023-07-16T05:10:52;15.70;99.90
7196;DHT22;3639;51.308;5.624;2023-07-16T05:13:18;15.70;99.90
7196;DHT22;3639;51.308;5.624;2023-07-16T05:15:44;15.70;99.90
7196;DHT22;3639;51.308;5.624;2023-07-16T05:18:10;15.70;99.90
7196;DHT22;3639;51.308;5.624;2023-07-16T05:20:36;15.80;99.90
7196;DHT22;3639;51.308;5.624;2023-07-16T05:23:01;15.80;99.90
7196;DHT22;3639;51.308;5.624;2023-07-16T05:25:27;15.80;99.90
7196;DHT22;3639;51.308;5.624;2023-07-16T05:27:53;15.80;99.90
7196;DHT22;3639;51.308;5.624;2023-07-16T05:30:18;15.90;99.90
7196;DHT22;3639;51.308;5.624;2023-07-16T05:32:44;15.80;99.90
7196;DHT22;3639;51.308;5.624;2023-07-16T05:35:10;15.90;99.90
7196;DHT22;3639;51.308;5.624;2023-07-16T05:37:35;16.00;99.90
7196;DHT22;3639;51.308;5.624;2023-07-16T05:40:02;16.00;99.90
7196;DHT22;3639;51.308;5.624;2023-07-16T05:42:28;16.10;99.90
7196;DHT22;3639;51.308;5.624;2023-07-16T05:44:54;16.20;99.90
7196;DHT22;3639;51.308;5.624;2023-07-16T05:47:19;16.20;99.90
7196;DHT22;3639;51.308;5.624;2023-07-16T05:49:45;16.20;99.90
7196;DHT22;3639;51.308;5.624;2023-07-16T05:52:11;16.30;99.90
7196;DHT22;3639;51.308;5.624;2023-07-16T05:54:36;16.30;99.90
7196;DHT22;3639;51.308;5.624;2023-07-16T05:57:04;16.30;99.90
7196;DHT22;3639;51.308;5.624;2023-07-16T05:59:30;16.40;99.90
7196;DHT22;3639;51.308;5.624;2023-07-16T06:02:00;16.50;99.90
7196;DHT22;3639;51.308;5.624;2023-07-16T06:04:25;16.60;99.90
7196;DHT22;3639;51.308;5.624;2023-07-16T06:06:51;16.60;99.90
7196;DHT22;3639;51.308;5.624;2023-07-16T06:09:16;16.70;99.90
7196;DHT22;3639;51.308;5.624;2023-07-16T06:11:47;16.70;99.90
7196;DHT22;3639;51.308;5.624;2023-07-16T06:14:13;16.80;99.90
7196;DHT22;3639;51.308;5.624;2023-07-16T06:16:39;16.80;99.90
7196;DHT22;3639;51.308;5.624;2023-07-16T06:19:04;16.80;99.90
7196;DHT22;3639;51.308;5.624;2023-07-16T06:21:30;16.90;99.90
7196;DHT22;3639;51.308;5.624;2023-07-16T06:23:56;16.90;99.90
7196;DHT22;3639;51.308;5.624;2023-07-16T06:26:21;17.00;99.90
7196;DHT22;3639;51.308;5.624;2023-07-16T06:28:47;17.10;99.90
7196;DHT22;3639;51.308;5.624;2023-07-16T06:31:17;17.20;99.90
7196;DHT22;3639;51.308;5.624;2023-07-16T06:33:43;17.30;99.90
7196;DHT22;3639;51.308;5.624;2023-07-16T06:36:09;17.40;99.90
7196;DHT22;3639;51.308;5.624;2023-07-16T06:38:34;17.40;99.90
7196;DHT22;3639;51.308;5.624;2023-07-16T06:41:01;17.50;99.90
7196;DHT22;3639;51.308;5.624;2023-07-16T06:43:27;17.60;99.90
7196;DHT22;3639;51.308;5.624;2023-07-16T06:45:53;17.70;99.90
7196;DHT22;3639;51.308;5.624;2023-07-16T06:48:19;17.80;99.90
7196;DHT22;3639;51.308;5.624;2023-07-16T06:50:45;17.90;99.90
7196;DHT22;3639;51.308;5.624;2023-07-16T06:53:10;18.00;99.90
7196;DHT22;3639;51.308;5.624;2023-07-16T06:55:36;18.00;99.90
7196;DHT22;3639;51.308;5.624;2023-07-16T06:58:02;18.10;99.90
7196;DHT22;3639;51.308;5.624;2023-07-16T07:00:28;18.10;99.90
7196;DHT22;3639;51.308;5.624;2023-07-16T07:02:54;18.10;99.90
7196;DHT22;3639;51.308;5.624;2023-07-16T07:05:20;18.30;99.90
7196;DHT22;3639;51.308;5.624;2023-07-16T07:07:46;18.50;99.90
7196;DHT22;3639;51.308;5.624;2023-07-16T07:10:12;18.60;99.90
7196;DHT22;3639;51.308;5.624;2023-07-16T07:12:38;18.50;99.90
7196;DHT22;3639;51.308;5.624;2023-07-16T07:15:08;18.60;99.90
7196;DHT22;3639;51.308;5.624;2023-07-16T07:17:33;18.60;99.90
7196;DHT22;3639;51.308;5.624;2023-07-16T07:20:00;18.70;99.90
7196;DHT22;3639;51.308;5.624;2023-07-16T07:22:26;18.70;99.90
7196;DHT22;3639;51.308;5.624;2023-07-16T07:24:51;18.80;99.90
7196;DHT22;3639;51.308;5.624;2023-07-16T07:27:17;18.90;99.90
7196;DHT22;3639;51.308;5.624;2023-07-16T07:29:42;19.00;99.90
7196;DHT22;3639;51.308;5.624;2023-07-16T07:32:08;19.00;99.90
7196;DHT22;3639;51.308;5.624;2023-07-16T07:34:34;19.10;99.90
7196;DHT22;3639;51.308;5.624;2023-07-16T07:36:59;19.10;99.90
7196;DHT22;3639;51.308;5.624;2023-07-16T07:39:25;19.10;99.90
7196;DHT22;3639;51.308;5.624;2023-07-16T07:41:51;19.20;99.90
7196;DHT22;3639;51.308;5.624;2023-07-16T07:44:16;19.40;99.90
7196;DHT22;3639;51.308;5.624;2023-07-16T07:46:42;19.50;99.90
7196;DHT22;3639;51.308;5.624;2023-07-16T07:49:07;19.70;99.90
7196;DHT22;3639;51.308;5.624;2023-07-16T07:51:33;19.80;99.90
7196;DHT22;3639;51.308;5.624;2023-07-16T07:53:59;19.80;99.90
7196;DHT22;3639;51.308;5.624;2023-07-16T07:56:25;19.80;99.90
7196;DHT22;3639;51.308;5.624;2023-07-16T07:58:51;19.90;99.90
7196;DHT22;3639;51.308;5.624;2023-07-16T08:01:16;19.90;99.90
7196;DHT22;3639;51.308;5.624;2023-07-16T08:03:42;19.80;99.90
7196;DHT22;3639;51.308;5.624;2023-07-16T08:06:07;19.90;99.90
7196;DHT22;3639;51.308;5.624;2023-07-16T08:08:33;20.00;99.90
7196;DHT22;3639;51.308;5.624;2023-07-16T08:10:59;20.20;99.90
7196;DHT22;3639;51.308;5.624;2023-07-16T08:13:24;20.40;99.90
7196;DHT22;3639;51.308;5.624;2023-07-16T08:15:50;20.50;99.90
7196;DHT22;3639;51.308;5.624;2023-07-16T08:18:15;20.50;99.90
7196;DHT22;3639;51.308;5.624;2023-07-16T08:20:41;20.60;99.90
7196;DHT22;3639;51.308;5.624;2023-07-16T08:23:07;20.60;99.90
7196;DHT22;3639;51.308;5.624;2023-07-16T08:25:32;20.70;99.90
7196;DHT22;3639;51.308;5.624;2023-07-16T08:27:58;20.70;99.90
7196;DHT22;3639;51.308;5.624;2023-07-16T08:30:24;20.80;99.90
7196;DHT22;3639;51.308;5.624;2023-07-16T08:32:49;20.70;99.90
7196;DHT22;3639;51.308;5.624;2023-07-16T08:35:16;20.70;99.90
7196;DHT22;3639;51.308;5.624;2023-07-16T08:37:43;20.90;99.90
7196;DHT22;3639;51.308;5.624;2023-07-16T08:40:10;21.10;99.90
7196;DHT22;3639;51.308;5.624;2023-07-16T08:42:39;21.20;99.90
7196;DHT22;3639;51.308;5.624;2023-07-16T08:45:06;21.20;99.90
7196;DHT22;3639;51.308;5.624;2023-07-16T08:47:34;21.30;99.90
7196;DHT22;3639;51.308;5.624;2023-07-16T08:50:01;21.40;99.90
7196;DHT22;3639;51.308;5.624;2023-07-16T08:52:27;21.40;99.90
7196;DHT22;3639;51.308;5.624;2023-07-16T08:54:53;21.50;99.90
7196;DHT22;3639;51.308;5.624;2023-07-16T08:57:20;21.60;99.90
7196;DHT22;3639;51.308;5.624;2023-07-16T08:59:50;21.70;99.90
7196;DHT22;3639;51.308;5.624;2023-07-16T09:02:20;21.80;99.90
7196;DHT22;3639;51.308;5.624;2023-07-16T09:04:47;21.90;99.90
7196;DHT22;3639;51.308;5.624;2023-07-16T09:07:13;22.00;99.90
7196;DHT22;3639;51.308;5.624;2023-07-16T09:09:39;22.10;99.90
7196;DHT22;3639;51.308;5.624;2023-07-16T09:12:05;22.20;99.90
7196;DHT22;3639;51.308;5.624;2023-07-16T09:14:31;22.20;99.90
7196;DHT22;3639;51.308;5.624;2023-07-16T09:16:56;22.20;99.90
7196;DHT22;3639;51.308;5.624;2023-07-16T09:19:22;22.40;99.90
7196;DHT22;3639;51.308;5.624;2023-07-16T09:21:48;22.40;99.90
7196;DHT22;3639;51.308;5.624;2023-07-16T09:24:15;22.20;99.90
7196;DHT22;3639;51.308;5.624;2023-07-16T09:26:52;22.40;99.90
7196;DHT22;3639;51.308;5.624;2023-07-16T09:29:18;22.60;99.90
7196;DHT22;3639;51.308;5.624;2023-07-16T09:32:00;22.70;99.90
7196;DHT22;3639;51.308;5.624;2023-07-16T09:34:29;22.70;99.90
7196;DHT22;3639;51.308;5.624;2023-07-16T09:36:59;22.70;99.90
7196;DHT22;3639;51.308;5.624;2023-07-16T09:39:25;22.70;99.90
7196;DHT22;3639;51.308;5.624;2023-07-16T09:41:51;22.80;99.90
7196;DHT22;3639;51.308;5.624;2023-07-16T09:44:18;23.10;99.90
7196;DHT22;3639;51.308;5.624;2023-07-16T09:46:44;22.90;99.90
7196;DHT22;3639;51.308;5.624;2023-07-16T09:49:10;22.80;99.90
7196;DHT22;3639;51.308;5.624;2023-07-16T09:51:38;22.70;99.90
7196;DHT22;3639;51.308;5.624;2023-07-16T09:54:05;22.60;99.90
7196;DHT22;3639;51.308;5.624;2023-07-16T09:56:37;22.40;99.90
7196;DHT22;3639;51.308;5.624;2023-07-16T09:59:12;22.40;99.90
7196;DHT22;3639;51.308;5.624;2023-07-16T10:01:39;22.50;99.90
7196;DHT22;3639;51.308;5.624;2023-07-16T10:04:16;22.30;99.90
7196;DHT22;3639;51.308;5.624;2023-07-16T10:07:00;22.40;99.90
7196;DHT22;3639;51.308;5.624;2023-07-16T10:09:33;22.60;99.90
7196;DHT22;3639;51.308;5.624;2023-07-16T10:12:15;22.70;99.90
7196;DHT22;3639;51.308;5.624;2023-07-16T10:17:07;22.80;99.90
7196;DHT22;3639;51.308;5.624;2023-07-16T10:19:49;23.00;99.90
7196;DHT22;3639;51.308;5.624;2023-07-16T10:22:15;23.30;99.90
7196;DHT22;3639;51.308;5.624;2023-07-16T10:24:41;23.40;99.90
7196;DHT22;3639;51.308;5.624;2023-07-16T10:27:07;23.40;99.90
7196;DHT22;3639;51.308;5.624;2023-07-16T10:29:33;23.20;99.40
7196;DHT22;3639;51.308;5.624;2023-07-16T10:31:58;23.30;99.50
7196;DHT22;3639;51.308;5.624;2023-07-16T10:34:24;23.20;98.50
7196;DHT22;3639;51.308;5.624;2023-07-16T10:36:51;23.10;99.10
7196;DHT22;3639;51.308;5.624;2023-07-16T10:39:17;23.20;98.30
7196;DHT22;3639;51.308;5.624;2023-07-16T10:41:43;23.20;99.40
7196;DHT22;3639;51.308;5.624;2023-07-16T10:44:09;23.30;98.50
7196;DHT22;3639;51.308;5.624;2023-07-16T10:46:36;23.20;98.90
7196;DHT22;3639;51.308;5.624;2023-07-16T10:49:02;23.30;99.40
7196;DHT22;3639;51.308;5.624;2023-07-16T10:51:28;23.20;98.50
7196;DHT22;3639;51.308;5.624;2023-07-16T10:53:57;23.00;98.90
7196;DHT22;3639;51.308;5.624;2023-07-16T10:56:22;23.10;99.00
7196;DHT22;3639;51.308;5.624;2023-07-16T10:58:48;22.90;98.70
7196;DHT22;3639;51.308;5.624;2023-07-16T11:01:14;22.70;98.50
7196;DHT22;3639;51.308;5.624;2023-07-16T11:03:40;22.40;99.10
7196;DHT22;3639;51.308;5.624;2023-07-16T11:06:09;22.30;99.20
7196;DHT22;3639;51.308;5.624;2023-07-16T11:08:37;22.30;99.20
7196;DHT22;3639;51.308;5.624;2023-07-16T11:11:02;22.30;99.20
7196;DHT22;3639;51.308;5.624;2023-07-16T11:13:30;22.30;99.00
7196;DHT22;3639;51.308;5.624;2023-07-16T11:15:56;22.30;99.00
7196;DHT22;3639;51.308;5.624;2023-07-16T11:18:23;22.30;99.60
7196;DHT22;3639;51.308;5.624;2023-07-16T11:20:53;22.20;99.70
7196;DHT22;3639;51.308;5.624;2023-07-16T11:23:19;22.10;99.70
7196;DHT22;3639;51.308;5.624;2023-07-16T11:25:48;22.30;99.60
7196;DHT22;3639;51.308;5.624;2023-07-16T11:28:14;22.50;99.80
7196;DHT22;3639;51.308;5.624;2023-07-16T11:30:40;22.70;99.20
7196;DHT22;3639;51.308;5.624;2023-07-16T11:33:12;22.90;99.40
7196;DHT22;3639;51.308;5.624;2023-07-16T11:35:38;23.00;99.60
7196;DHT22;3639;51.308;5.624;2023-07-16T11:38:05;23.10;99.90
7196;DHT22;3639;51.308;5.624;2023-07-16T11:40:34;23.30;99.40
7196;DHT22;3639;51.308;5.624;2023-07-16T11:43:09;23.40;98.80
7196;DHT22;3639;51.308;5.624;2023-07-16T11:45:35;23.40;98.40
7196;DHT22;3639;51.308;5.624;2023-07-16T11:48:01;23.30;98.40
7196;DHT22;3639;51.308;5.624;2023-07-16T11:50:28;23.10;98.90
7196;DHT22;3639;51.308;5.624;2023-07-16T11:52:56;23.20;98.70
7196;DHT22;3639;51.308;5.624;2023-07-16T11:55:22;23.30;99.40
7196;DHT22;3639;51.308;5.624;2023-07-16T11:57:47;23.40;98.20
7196;DHT22;3639;51.308;5.624;2023-07-16T12:00:13;23.30;98.40
7196;DHT22;3639;51.308;5.624;2023-07-16T12:02:39;23.10;97.80
7196;DHT22;3639;51.308;5.624;2023-07-16T12:05:04;22.90;97.80
7196;DHT22;3639;51.308;5.624;2023-07-16T12:07:37;22.70;98.60
7196;DHT22;3639;51.308;5.624;2023-07-16T12:10:04;22.70;98.70
7196;DHT22;3639;51.308;5.624;2023-07-16T12:12:31;22.80;99.00
7196;DHT22;3639;51.308;5.624;2023-07-16T12:14:56;22.80;99.10
7196;DHT22;3639;51.308;5.624;2023-07-16T12:17:22;22.80;98.20
7196;DHT22;3639;51.308;5.624;2023-07-16T12:19:47;22.80;98.60
7196;DHT22;3639;51.308;5.624;2023-07-16T12:22:16;22.90;98.30
7196;DHT22;3639;51.308;5.624;2023-07-16T12:24:42;22.90;98.70
7196;DHT22;3639;51.308;5.624;2023-07-16T12:27:08;23.10;98.90
7196;DHT22;3639;51.308;5.624;2023-07-16T12:29:33;23.40;98.60
7196;DHT22;3639;51.308;5.624;2023-07-16T12:31:59;23.70;98.60
7196;DHT22;3639;51.308;5.624;2023-07-16T12:34:25;23.80;98.10
7196;DHT22;3639;51.308;5.624;2023-07-16T12:36:51;24.00;98.20
7196;DHT22;3639;51.308;5.624;2023-07-16T12:39:16;24.10;97.90
7196;DHT22;3639;51.308;5.624;2023-07-16T12:41:45;24.20;98.10
7196;DHT22;3639;51.308;5.624;2023-07-16T12:44:10;24.20;97.90
7196;DHT22;3639;51.308;5.624;2023-07-16T12:46:36;24.30;97.50
7196;DHT22;3639;51.308;5.624;2023-07-16T12:49:01;24.50;98.30
7196;DHT22;3639;51.308;5.624;2023-07-16T12:51:27;24.80;98.10
7196;DHT22;3639;51.308;5.624;2023-07-16T12:53:53;24.80;96.70
7196;DHT22;3639;51.308;5.624;2023-07-16T12:56:18;24.90;97.20
7196;DHT22;3639;51.308;5.624;2023-07-16T12:58:44;24.90;96.00
7196;DHT22;3639;51.308;5.624;2023-07-16T13:01:10;25.00;97.60
7196;DHT22;3639;51.308;5.624;2023-07-16T13:03:35;25.00;96.00
7196;DHT22;3639;51.308;5.624;2023-07-16T13:06:01;25.00;95.90
7196;DHT22;3639;51.308;5.624;2023-07-16T13:08:29;24.80;95.20
7196;DHT22;3639;51.308;5.624;2023-07-16T13:10:55;24.60;95.50
7196;DHT22;3639;51.308;5.624;2023-07-16T13:13:20;24.20;96.30
7196;DHT22;3639;51.308;5.624;2023-07-16T13:15:46;24.20;96.90
7196;DHT22;3639;51.308;5.624;2023-07-16T13:18:12;24.20;97.00
7196;DHT22;3639;51.308;5.624;2023-07-16T13:20:38;24.40;95.90
7196;DHT22;3639;51.308;5.624;2023-07-16T13:23:04;24.50;95.90
7196;DHT22;3639;51.308;5.624;2023-07-16T13:25:30;24.40;96.30
7196;DHT22;3639;51.308;5.624;2023-07-16T13:27:56;24.40;96.10
7196;DHT22;3639;51.308;5.624;2023-07-16T13:30:22;24.30;96.30
7196;DHT22;3639;51.308;5.624;2023-07-16T13:32:48;24.50;96.50
7196;DHT22;3639;51.308;5.624;2023-07-16T13:35:15;24.50;95.70
7196;DHT22;3639;51.308;5.624;2023-07-16T13:37:41;24.50;95.60
7196;DHT22;3639;51.308;5.624;2023-07-16T13:40:07;24.40;95.80
7196;DHT22;3639;51.308;5.624;2023-07-16T13:42:33;24.40;95.90
7196;DHT22;3639;51.308;5.624;2023-07-16T13:44:59;24.40;96.30
7196;DHT22;3639;51.308;5.624;2023-07-16T13:47:25;24.50;96.30
7196;DHT22;3639;51.308;5.624;2023-07-16T13:49:51;24.60;96.40
7196;DHT22;3639;51.308;5.624;2023-07-16T13:52:16;24.90;96.60
7196;DHT22;3639;51.308;5.624;2023-07-16T13:54:42;25.10;95.80
7196;DHT22;3639;51.308;5.624;2023-07-16T13:57:09;25.20;95.70
7196;DHT22;3639;51.308;5.624;2023-07-16T13:59:35;25.20;95.60
7196;DHT22;3639;51.308;5.624;2023-07-16T14:02:01;25.20;95.60
7196;DHT22;3639;51.308;5.624;2023-07-16T14:04:28;25.30;95.10
7196;DHT22;3639;51.308;5.624;2023-07-16T14:06:54;25.00;95.10
7196;DHT22;3639;51.308;5.624;2023-07-16T14:09:20;25.00;95.80
7196;DHT22;3639;51.308;5.624;2023-07-16T14:11:46;25.20;96.50
7196;DHT22;3639;51.308;5.624;2023-07-16T14:14:20;25.50;94.70
7196;DHT22;3639;51.308;5.624;2023-07-16T14:16:46;25.60;94.80
7196;DHT22;3639;51.308;5.624;2023-07-16T14:19:11;25.70;94.70
7196;DHT22;3639;51.308;5.624;2023-07-16T14:21:38;25.80;94.70
7196;DHT22;3639;51.308;5.624;2023-07-16T14:24:04;25.80;94.90
7196;DHT22;3639;51.308;5.624;2023-07-16T14:26:30;25.80;94.60
7196;DHT22;3639;51.308;5.624;2023-07-16T14:28:55;25.70;94.70
7196;DHT22;3639;51.308;5.624;2023-07-16T14:31:21;25.70;94.70
7196;DHT22;3639;51.308;5.624;2023-07-16T14:33:47;25.60;94.10
7196;DHT22;3639;51.308;5.624;2023-07-16T14:36:12;25.50;94.70
7196;DHT22;3639;51.308;5.624;2023-07-16T14:38:38;25.50;94.80
7196;DHT22;3639;51.308;5.624;2023-07-16T14:41:04;25.40;94.70
7196;DHT22;3639;51.308;5.624;2023-07-16T14:43:31;25.30;94.90
7196;DHT22;3639;51.308;5.624;2023-07-16T14:45:57;25.30;94.30
7196;DHT22;3639;51.308;5.624;2023-07-16T14:48:23;25.20;93.90
7196;DHT22;3639;51.308;5.624;2023-07-16T14:50:49;25.10;93.50
7196;DHT22;3639;51.308;5.624;2023-07-16T14:53:15;25.10;93.80
7196;DHT22;3639;51.308;5.624;2023-07-16T14:55:46;25.10;94.50
7196;DHT22;3639;51.308;5.624;2023-07-16T14:58:12;25.20;94.80
7196;DHT22;3639;51.308;5.624;2023-07-16T15:00:38;25.30;94.50
7196;DHT22;3639;51.308;5.624;2023-07-16T15:03:03;25.30;94.20
7196;DHT22;3639;51.308;5.624;2023-07-16T15:05:30;25.50;93.80
7196;DHT22;3639;51.308;5.624;2023-07-16T15:07:55;25.50;93.70
7196;DHT22;3639;51.308;5.624;2023-07-16T15:10:21;25.50;92.90
7196;DHT22;3639;51.308;5.624;2023-07-16T15:12:46;25.50;93.60
7196;DHT22;3639;51.308;5.624;2023-07-16T15:15:13;25.50;93.30
7196;DHT22;3639;51.308;5.624;2023-07-16T15:17:38;25.40;93.40
7196;DHT22;3639;51.308;5.624;2023-07-16T15:20:04;25.40;93.30
7196;DHT22;3639;51.308;5.624;2023-07-16T15:22:32;25.50;93.10
7196;DHT22;3639;51.308;5.624;2023-07-16T15:24:59;25.50;92.70
7196;DHT22;3639;51.308;5.624;2023-07-16T15:27:26;25.30;92.50
7196;DHT22;3639;51.308;5.624;2023-07-16T15:29:52;25.10;92.70
7196;DHT22;3639;51.308;5.624;2023-07-16T15:32:17;25.00;93.00
7196;DHT22;3639;51.308;5.624;2023-07-16T15:34:43;24.80;93.40
7196;DHT22;3639;51.308;5.624;2023-07-16T15:37:09;24.70;93.80
7196;DHT22;3639;51.308;5.624;2023-07-16T15:39:34;24.50;93.70
7196;DHT22;3639;51.308;5.624;2023-07-16T15:42:00;24.50;94.20
7196;DHT22;3639;51.308;5.624;2023-07-16T15:44:26;24.40;94.40
7196;DHT22;3639;51.308;5.624;2023-07-16T15:46:52;24.30;94.70
7196;DHT22;3639;51.308;5.624;2023-07-16T15:49:17;24.20;94.90
7196;DHT22;3639;51.308;5.624;2023-07-16T15:51:44;24.10;95.20
7196;DHT22;3639;51.308;5.624;2023-07-16T15:54:10;23.90;95.50
7196;DHT22;3639;51.308;5.624;2023-07-16T15:56:36;23.80;96.20
7196;DHT22;3639;51.308;5.624;2023-07-16T15:59:01;23.70;97.00
7196;DHT22;3639;51.308;5.624;2023-07-16T16:01:27;23.70;97.20
7196;DHT22;3639;51.308;5.624;2023-07-16T16:03:53;23.60;97.20
7196;DHT22;3639;51.308;5.624;2023-07-16T16:06:19;23.60;97.10
7196;DHT22;3639;51.308;5.624;2023-07-16T16:08:44;23.70;97.30